Wilmington, North Carolina
Current Conditions -  °F | °C
As of 7:53 AM on Saturday 20 Dec 2014 (Local Time) from KILM Reporting Station
Light Rain Light Rain  
Wind Chill: 37°   Ceiling: 8000
Heat Index: 42°   Visibility: 8mi
Dew Point: 40°   Wind: 8mph
Humidity: 92%   Direction: 40°NE
Pressure: 30.22"   Gusts: NA
Location:  34.24°N, 77.94°W
Report Text: KILM 201253Z 04007KT 8SM -RA OVC080 06/04 A3022 RMK AO2 SLP234 P0001 T00560044
Loading
Personal Weather Stations






























Interactive Weather Map New forecast layout! Learn more

10-Day Weather Forecast

Advertisements
Track Severe Weather on mobile